Time;durP1;ratioP1;P1;durP2;ratioP2;P2;SDS_P1;SDS_P2;PMS_P1;PMS_P2;Temp;Humidity;BMP_temperature;BMP_pressure;BME280_temperature;BME280_humidity;BME280_pressure;Samples;Min_cycle;Max_cycle;Signal;HPM_P1;HPM_P2
2022/06/30 00:01:44;;;;;;;5.30;1.30;;;;;;;17.49;100.00;97637.78;5105136;28;20031;-93
2022/06/30 00:04:10;;;;;;;7.07;1.50;;;;;;;17.97;100.00;97641.28;5107418;27;20030;-92
2022/06/30 00:06:35;;;;;;;7.43;1.67;;;;;;;17.93;100.00;97636.28;5094491;28;20388;-92
2022/06/30 00:09:01;;;;;;;9.13;1.95;;;;;;;17.87;100.00;97632.16;5091838;28;20036;-92
2022/06/30 00:11:26;;;;;;;7.95;1.45;;;;;;;18.14;100.00;97632.38;5092034;28;20032;-91
2022/06/30 00:13:52;;;;;;;6.30;1.42;;;;;;;18.01;100.00;97636.66;5094049;28;20069;-92
2022/06/30 00:16:18;;;;;;;4.82;1.35;;;;;;;17.84;100.00;97634.97;5097589;28;20068;-92
2022/06/30 00:18:43;;;;;;;6.72;1.38;;;;;;;17.81;100.00;97635.97;5093517;28;20051;-91
2022/06/30 00:21:09;;;;;;;6.03;1.50;;;;;;;17.87;100.00;97635.66;5096954;28;20118;-92
2022/06/30 00:23:35;;;;;;;6.10;1.25;;;;;;;17.56;100.00;97624.19;5089575;28;20048;-92
2022/06/30 00:26:01;;;;;;;5.78;1.20;;;;;;;17.80;100.00;97628.16;5091527;28;20037;-92
2022/06/30 00:28:26;;;;;;;8.20;1.60;;;;;;;18.08;100.00;97620.41;5086379;28;20391;-93
2022/06/30 00:30:52;;;;;;;7.57;1.38;;;;;;;18.07;100.00;97626.63;5093520;28;20093;-92
2022/06/30 00:33:18;;;;;;;6.22;1.48;;;;;;;18.07;100.00;97618.69;5094841;28;20032;-92
2022/06/30 00:35:45;;;;;;;7.32;1.58;;;;;;;17.94;100.00;97615.09;5095810;28;20027;-92
2022/06/30 00:38:11;;;;;;;5.68;1.35;;;;;;;18.04;100.00;97624.16;5091313;28;20055;-93
2022/06/30 00:40:46;;;;;;;5.75;1.33;;;;;;;17.45;100.00;97610.75;5093558;28;20028;-92
2022/06/30 00:43:12;;;;;;;5.60;1.58;;;;;;;17.33;100.00;97612.28;5087164;28;20028;-93
2022/06/30 00:45:47;;;;;;;5.68;1.33;;;;;;;17.40;100.00;97608.38;5096433;28;20081;-92
2022/06/30 00:48:14;;;;;;;8.50;1.80;;;;;;;17.31;100.00;97614.13;5091795;28;20070;-92
2022/06/30 00:50:40;;;;;;;7.03;1.40;;;;;;;17.89;100.00;97601.28;5085975;28;20026;-92
2022/06/30 00:53:07;;;;;;;7.10;1.58;;;;;;;17.27;100.00;97606.50;5099010;28;20115;-93
2022/06/30 00:55:34;;;;;;;4.93;1.40;;;;;;;17.43;100.00;97601.25;5087698;28;20102;-92
2022/06/30 00:58:04;;;;;;;8.32;1.50;;;;;;;17.35;100.00;97599.00;5093034;28;20028;-91
2022/06/30 01:00:34;;;;;;;7.60;1.58;;;;;;;17.47;100.00;97590.44;5085007;28;20036;-92
2022/06/30 01:03:01;;;;;;;5.93;1.40;;;;;;;17.72;100.00;97596.97;5101356;28;20082;-92
2022/06/30 01:05:28;;;;;;;7.55;1.50;;;;;;;17.50;100.00;97599.97;5099864;28;20034;-93
2022/06/30 01:07:54;;;;;;;7.60;1.73;;;;;;;17.72;100.00;97603.09;5094695;27;20036;-93
2022/06/30 01:13:05;;;;;;;6.32;1.80;;;;;;;17.06;100.00;97602.31;5099203;28;20507;-92
2022/06/30 01:15:33;;;;;;;7.60;1.60;;;;;;;17.00;100.00;97601.78;5095737;28;20036;-92
2022/06/30 01:17:58;;;;;;;7.28;1.73;;;;;;;16.65;100.00;97609.75;5092019;28;20035;-93
2022/06/30 01:20:26;;;;;;;6.25;1.63;;;;;;;16.49;100.00;97604.41;5103700;27;20375;-90
2022/06/30 01:22:52;;;;;;;7.35;2.15;;;;;;;16.75;100.00;97599.59;5098693;28;20024;-92
2022/06/30 01:25:17;;;;;;;6.45;2.00;;;;;;;16.53;100.00;97600.69;5095424;28;20051;-94
2022/06/30 01:27:42;;;;;;;6.65;1.80;;;;;;;16.55;100.00;97591.78;5102336;28;20027;-93
2022/06/30 01:30:08;;;;;;;7.40;2.10;;;;;;;17.10;100.00;97591.63;5092369;28;20110;-93
2022/06/30 01:32:34;;;;;;;6.88;1.95;;;;;;;16.97;100.00;97596.69;5097524;28;20517;-93
2022/06/30 01:35:00;;;;;;;7.95;2.10;;;;;;;16.98;100.00;97601.88;5096346;28;20028;-92
2022/06/30 01:37:54;;;;;;;8.48;2.13;;;;;;;16.98;100.00;97609.78;5094185;28;20118;-93
2022/06/30 01:40:22;;;;;;;9.43;2.47;;;;;;;16.90;100.00;97601.44;5086924;28;20028;-92
2022/06/30 01:42:48;;;;;;;8.82;2.40;;;;;;;16.81;100.00;97608.03;5097967;28;20775;-91
2022/06/30 01:45:13;;;;;;;6.80;2.20;;;;;;;16.72;100.00;97608.50;5096711;28;20222;-92
2022/06/30 01:47:41;;;;;;;8.60;2.00;;;;;;;17.16;100.00;97617.59;5095347;28;20561;-93
2022/06/30 01:50:12;;;;;;;7.03;2.10;;;;;;;17.00;100.00;97607.91;5090517;28;20049;-92
2022/06/30 01:52:37;;;;;;;7.45;2.15;;;;;;;16.96;100.00;97614.25;5092806;28;20040;-92
2022/06/30 01:55:08;;;;;;;8.45;2.85;;;;;;;16.69;100.00;97616.56;5095408;28;20047;-93
2022/06/30 01:57:35;;;;;;;7.38;2.40;;;;;;;16.53;100.00;97617.34;5091810;28;20081;-93
2022/06/30 02:00:02;;;;;;;9.20;2.67;;;;;;;16.87;100.00;97610.31;5099393;28;20027;-92
2022/06/30 02:02:30;;;;;;;9.80;2.42;;;;;;;17.00;100.00;97610.53;5088624;28;20028;-92
2022/06/30 02:04:55;;;;;;;7.50;2.30;;;;;;;16.90;100.00;97606.72;5088339;28;20055;-94
2022/06/30 02:07:22;;;;;;;8.73;2.30;;;;;;;17.13;100.00;97605.47;5087190;28;20067;-92
2022/06/30 02:09:51;;;;;;;7.47;2.50;;;;;;;16.95;100.00;97602.06;5108728;27;20019;-93
2022/06/30 02:15:33;;;;;;;7.72;2.65;;;;;;;16.60;100.00;97624.94;5086142;28;20036;-92
2022/06/30 02:18:00;;;;;;;9.18;2.97;;;;;;;17.01;100.00;97620.16;5090726;28;20558;-92
2022/06/30 02:20:26;;;;;;;7.68;2.65;;;;;;;16.70;100.00;97619.09;5093301;28;20047;-93
2022/06/30 02:22:56;;;;;;;7.95;2.60;;;;;;;16.81;100.00;97634.34;5077041;28;20069;-92
2022/06/30 02:25:26;;;;;;;7.40;2.35;;;;;;;16.51;100.00;97628.88;5085563;28;20032;-93
2022/06/30 02:27:52;;;;;;;8.35;2.47;;;;;;;16.79;100.00;97624.81;5099991;28;20027;-92
2022/06/30 02:30:18;;;;;;;8.60;2.80;;;;;;;16.69;100.00;97625.28;5075069;28;20407;-93
2022/06/30 02:32:46;;;;;;;9.45;2.90;;;;;;;16.91;100.00;97613.69;5079630;28;20027;-92
2022/06/30 02:35:11;;;;;;;10.32;3.25;;;;;;;16.06;100.00;97622.38;5073129;28;20052;-92
2022/06/30 02:37:37;;;;;;;7.60;2.97;;;;;;;16.03;100.00;97616.34;5074861;28;20186;-93
2022/06/30 02:40:03;;;;;;;8.27;2.80;;;;;;;16.55;100.00;97614.66;5070648;28;20519;-93
2022/06/30 02:42:29;;;;;;;11.23;3.47;;;;;;;16.21;100.00;97608.47;5072873;28;20115;-92
2022/06/30 02:44:54;;;;;;;9.73;3.20;;;;;;;16.73;100.00;97595.25;5068107;28;20036;-93
2022/06/30 02:47:20;;;;;;;8.05;3.10;;;;;;;16.93;100.00;97598.63;5087182;28;20106;-93
2022/06/30 02:49:45;;;;;;;9.07;3.63;;;;;;;16.80;100.00;97605.44;5074682;28;20059;-93
2022/06/30 02:52:12;;;;;;;9.23;3.17;;;;;;;16.69;100.00;97603.41;5088501;28;20093;-92
2022/06/30 02:54:37;;;;;;;10.88;3.60;;;;;;;16.80;100.00;97595.78;5095273;28;20064;-93
2022/06/30 02:57:03;;;;;;;11.52;3.88;;;;;;;16.23;100.00;97596.09;5089282;28;20379;-92
2022/06/30 02:59:29;;;;;;;11.45;3.65;;;;;;;16.41;100.00;97589.03;5096173;28;20036;-92
2022/06/30 03:01:54;;;;;;;9.60;3.97;;;;;;;16.12;100.00;97594.00;5104736;28;20115;-93
2022/06/30 03:04:21;;;;;;;8.93;3.80;;;;;;;15.83;100.00;97592.81;5087554;28;20048;-92
2022/06/30 03:06:47;;;;;;;8.00;3.45;;;;;;;16.13;100.00;97586.94;5087946;28;20024;-92
2022/06/30 03:09:13;;;;;;;8.63;3.67;;;;;;;16.13;100.00;97572.03;5095596;28;20091;-93
2022/06/30 03:11:39;;;;;;;12.55;4.10;;;;;;;16.14;100.00;97576.34;5095643;28;20070;-92
2022/06/30 03:14:05;;;;;;;8.80;3.78;;;;;;;16.16;100.00;97566.59;5092438;28;20029;-92
2022/06/30 03:16:30;;;;;;;13.30;3.85;;;;;;;15.93;100.00;97569.56;5092285;28;20046;-93
2022/06/30 03:18:56;;;;;;;10.23;3.55;;;;;;;15.95;100.00;97576.44;5099841;28;20523;-93
2022/06/30 03:21:22;;;;;;;10.35;3.90;;;;;;;16.09;100.00;97582.75;5084609;28;20039;-93
2022/06/30 03:23:47;;;;;;;8.95;3.65;;;;;;;16.18;100.00;97590.19;5094889;28;20020;-92
2022/06/30 03:26:13;;;;;;;10.77;3.60;;;;;;;16.51;100.00;97600.78;5089268;28;20163;-93
2022/06/30 03:28:41;;;;;;;9.02;3.33;;;;;;;16.37;100.00;97605.91;5099246;28;20032;-92
2022/06/30 03:31:06;;;;;;;11.45;3.50;;;;;;;16.30;100.00;97612.41;5091255;28;20051;-93
2022/06/30 03:33:32;;;;;;;8.68;3.22;;;;;;;16.25;100.00;97620.53;5091519;28;20063;-93
2022/06/30 03:35:58;;;;;;;10.18;3.65;;;;;;;16.22;100.00;97620.69;5086355;28;20031;-93
2022/06/30 03:38:23;;;;;;;7.93;3.00;;;;;;;16.13;100.00;97615.88;5089971;28;20032;-93
2022/06/30 03:40:49;;;;;;;7.72;3.67;;;;;;;16.07;100.00;97610.94;5095421;28;20032;-92
2022/06/30 03:43:16;;;;;;;7.80;2.83;;;;;;;16.38;100.00;97597.94;5093457;28;20504;-93
2022/06/30 03:45:42;;;;;;;9.43;2.90;;;;;;;15.89;100.00;97610.91;5098735;28;20027;-93
2022/06/30 03:48:08;;;;;;;8.55;3.13;;;;;;;19.63;100.00;97600.47;5099272;28;20024;-92
2022/06/30 03:50:34;;;;;;;9.93;2.92;;;;;;;19.77;100.00;97605.72;5090379;28;20064;-92
2022/06/30 03:53:00;;;;;;;7.68;3.00;;;;;;;21.82;100.00;97601.44;5095944;28;20058;-92
2022/06/30 03:55:26;;;;;;;8.05;2.83;;;;;;;16.69;100.00;97614.75;5106473;28;20056;-94
2022/06/30 03:57:51;;;;;;;9.23;3.17;;;;;;;21.42;100.00;97606.94;5095828;28;20024;-94
2022/06/30 04:00:17;;;;;;;7.80;3.15;;;;;;;16.55;100.00;97623.38;5098349;28;20032;-93
2022/06/30 04:02:43;;;;;;;9.38;3.20;;;;;;;16.12;100.00;97629.97;5087662;28;20600;-93
2022/06/30 04:05:09;;;;;;;8.63;3.20;;;;;;;16.22;100.00;97633.84;5095548;28;20031;-93
2022/06/30 04:07:45;;;;;;;8.35;3.22;;;;;;;16.06;100.00;97630.25;5096942;28;20028;-92
2022/06/30 04:10:13;;;;;;;9.27;3.30;;;;;;;16.20;100.00;97633.09;5102392;28;20027;-93
2022/06/30 04:12:40;;;;;;;10.75;4.53;;;;;;;16.00;100.00;97621.75;5100197;28;20073;-93
2022/06/30 04:15:07;;;;;;;10.90;4.60;;;;;;;16.35;100.00;97631.44;5092899;28;20024;-92
2022/06/30 04:17:36;;;;;;;10.27;3.95;;;;;;;16.18;100.00;97630.50;5100264;28;20022;-92
2022/06/30 04:20:04;;;;;;;10.82;4.60;;;;;;;16.19;100.00;97640.09;5096957;28;20061;-93
2022/06/30 04:22:29;;;;;;;10.63;5.07;;;;;;;16.21;100.00;97640.91;5092098;28;20032;-92
2022/06/30 04:24:55;;;;;;;11.18;4.75;;;;;;;16.33;100.00;97642.03;5097528;28;20039;-92
2022/06/30 04:27:21;;;;;;;11.82;5.15;;;;;;;16.58;100.00;97643.44;5096759;28;20035;-93
2022/06/30 04:29:46;;;;;;;10.80;4.28;;;;;;;16.58;100.00;97647.84;5089724;28;20118;-94
2022/06/30 04:34:56;;;;;;;8.30;3.63;;;;;;;17.35;100.00;97634.13;5093208;28;20043;-93
2022/06/30 04:37:21;;;;;;;8.77;3.70;;;;;;;16.75;100.00;97641.72;5088707;28;20399;-92
2022/06/30 04:39:49;;;;;;;9.90;3.83;;;;;;;16.71;100.00;97646.28;5094395;28;20065;-93
2022/06/30 04:42:14;;;;;;;9.68;3.60;;;;;;;16.75;100.00;97653.09;5094750;28;20028;-93
2022/06/30 04:44:41;;;;;;;9.75;3.85;;;;;;;16.78;100.00;97652.91;5091413;28;20024;-93
2022/06/30 04:47:07;;;;;;;11.07;3.70;;;;;;;17.14;100.00;97651.09;5092649;28;20073;-92
2022/06/30 04:49:32;;;;;;;9.65;4.30;;;;;;;16.62;100.00;97655.50;5090782;28;20067;-93
2022/06/30 04:51:58;;;;;;;9.80;4.00;;;;;;;16.94;100.00;97657.41;5092307;28;20030;-93
2022/06/30 04:54:24;;;;;;;10.02;4.25;;;;;;;16.45;100.00;97658.13;5095846;28;20047;-92
2022/06/30 04:56:49;;;;;;;10.65;4.32;;;;;;;16.78;100.00;97662.59;5098409;28;20704;-93
2022/06/30 04:59:18;;;;;;;10.80;3.90;;;;;;;16.53;100.00;97650.69;5103536;28;20035;-93
2022/06/30 05:01:45;;;;;;;15.05;4.68;;;;;;;16.49;100.00;97657.03;5085993;28;20024;-92
2022/06/30 05:04:11;;;;;;;13.02;4.85;;;;;;;16.73;100.00;97655.81;5097331;28;20022;-92
2022/06/30 05:06:36;;;;;;;19.23;5.15;;;;;;;16.66;100.00;97651.78;5093489;28;20779;-92
2022/06/30 05:09:02;;;;;;;10.50;4.68;;;;;;;16.77;100.00;97653.88;5095726;28;20036;-94
2022/06/30 05:11:27;;;;;;;12.40;5.15;;;;;;;16.61;100.00;97648.53;5090460;28;20032;-93
2022/06/30 05:13:53;;;;;;;29.33;5.78;;;;;;;16.67;100.00;97631.56;5095648;28;20024;-93
2022/06/30 05:16:19;;;;;;;11.75;5.25;;;;;;;16.68;100.00;97639.38;5083398;28;20812;-92
2022/06/30 05:18:46;;;;;;;11.30;5.82;;;;;;;16.66;100.00;97643.03;5096393;28;20028;-93
2022/06/30 05:21:12;;;;;;;12.18;6.40;;;;;;;16.77;100.00;97642.47;5089090;28;20090;-92
2022/06/30 05:23:37;;;;;;;12.30;6.30;;;;;;;18.46;100.00;97634.09;5081423;28;20050;-93
2022/06/30 05:28:48;;;;;;;14.93;8.45;;;;;;;17.00;100.00;97634.25;5092074;28;20120;-93
2022/06/30 05:31:14;;;;;;;16.05;8.40;;;;;;;17.32;100.00;97644.81;5093042;28;20325;-93
2022/06/30 05:33:39;;;;;;;16.20;9.15;;;;;;;17.14;100.00;97643.19;5092454;28;20042;-93
2022/06/30 05:36:06;;;;;;;19.92;10.15;;;;;;;16.80;100.00;97642.31;5086171;28;20034;-94
2022/06/30 05:38:31;;;;;;;15.43;9.00;;;;;;;17.04;100.00;97641.03;5083425;28;20031;-93
2022/06/30 05:40:57;;;;;;;16.02;8.85;;;;;;;17.47;100.00;97637.03;5085107;28;20027;-93
2022/06/30 05:43:22;;;;;;;17.00;8.57;;;;;;;17.27;100.00;97641.63;5080809;28;20024;-92
2022/06/30 05:45:51;;;;;;;16.30;7.68;;;;;;;16.84;100.00;97646.47;5081167;28;21192;-93
2022/06/30 05:48:17;;;;;;;17.38;8.00;;;;;;;17.13;100.00;97647.63;5084228;28;20400;-92
2022/06/30 05:50:42;;;;;;;14.35;7.18;;;;;;;17.22;100.00;97652.38;5082623;28;20035;-93
2022/06/30 05:53:08;;;;;;;13.68;6.75;;;;;;;17.43;100.00;97652.16;5081259;28;20385;-94
2022/06/30 05:55:33;;;;;;;14.35;6.68;;;;;;;16.71;100.00;97654.16;5093794;28;20036;-93
2022/06/30 05:58:11;;;;;;;15.55;7.10;;;;;;;17.14;100.00;97646.66;5091337;28;20550;-93
2022/06/30 06:00:37;;;;;;;20.10;9.90;;;;;;;16.72;100.00;97651.47;5109734;27;20049;-93
2022/06/30 06:03:02;;;;;;;24.75;10.32;;;;;;;17.24;100.00;97647.03;5100150;28;20110;-94
2022/06/30 06:05:28;;;;;;;22.25;11.07;;;;;;;16.71;100.00;97646.28;5107001;28;20070;-94
2022/06/30 06:07:54;;;;;;;22.05;11.38;;;;;;;16.41;100.00;97652.19;5108587;28;20035;-93
2022/06/30 06:10:20;;;;;;;20.58;10.55;;;;;;;17.17;100.00;97640.41;5096017;28;20028;-95
2022/06/30 06:12:48;;;;;;;19.38;9.80;;;;;;;16.71;100.00;97652.41;5101347;28;20483;-92
2022/06/30 06:15:21;;;;;;;18.05;9.30;;;;;;;16.92;100.00;97646.97;5102540;28;20027;-93
2022/06/30 06:18:12;;;;;;;;;;;;;;;16.99;100.00;97650.13;5104758;28;20096;-94
2022/06/30 06:20:38;;;;;;;16.80;7.40;;;;;;;17.07;100.00;97645.31;5097912;28;19916;-94
2022/06/30 06:23:05;;;;;;;11.85;5.80;;;;;;;17.05;100.00;97652.44;5100435;28;20036;-94
2022/06/30 06:25:31;;;;;;;11.63;4.95;;;;;;;17.01;100.00;97653.53;5101285;28;20027;-93
2022/06/30 06:30:40;;;;;;;11.73;4.50;;;;;;;17.30;100.00;97651.13;5097971;28;20096;-94
2022/06/30 06:33:06;;;;;;;11.38;4.03;;;;;;;17.12;100.00;97656.47;5094169;28;20057;-93
2022/06/30 06:35:36;;;;;;;11.90;4.38;;;;;;;17.16;100.00;97644.81;5099147;28;20024;-93
2022/06/30 06:38:01;;;;;;;11.48;5.30;;;;;;;17.31;100.00;97652.81;5097865;28;20509;-95
2022/06/30 06:40:28;;;;;;;9.68;4.65;;;;;;;17.32;100.00;97644.00;5098398;28;20035;-95
2022/06/30 06:42:53;;;;;;;13.00;5.80;;;;;;;17.51;100.00;97643.84;5094553;28;20031;-96
2022/06/30 06:45:19;;;;;;;13.70;5.88;;;;;;;17.74;100.00;97651.31;5103683;28;20024;-96
2022/06/30 06:47:46;;;;;;;14.18;6.40;;;;;;;17.77;100.00;97646.81;5092702;28;20450;-96
2022/06/30 06:50:21;;;;;;;15.60;8.20;;;;;;;17.10;100.00;97653.03;5094581;28;20088;-96
2022/06/30 06:52:47;;;;;;;14.43;6.90;;;;;;;17.26;100.00;97650.44;5101340;28;20498;-94
2022/06/30 06:55:24;;;;;;;14.00;6.63;;;;;;;17.89;100.00;97659.28;5096672;28;20048;-93
2022/06/30 06:57:50;;;;;;;13.80;6.13;;;;;;;18.33;100.00;97657.69;5091860;28;20036;-94
2022/06/30 07:00:17;;;;;;;10.65;4.15;;;;;;;17.80;100.00;97654.53;5100099;28;20614;-93
2022/06/30 07:02:43;;;;;;;11.00;3.30;;;;;;;18.24;100.00;97659.09;5097675;28;20051;-93
2022/06/30 07:05:09;;;;;;;6.45;2.38;;;;;;;18.00;100.00;97662.22;5094161;28;20042;-93
2022/06/30 07:07:36;;;;;;;7.78;2.40;;;;;;;17.88;100.00;97665.50;5112816;27;20024;-93
2022/06/30 07:10:05;;;;;;;9.00;2.33;;;;;;;18.00;100.00;97674.56;5098500;28;20028;-93
2022/06/30 07:12:32;;;;;;;8.70;2.13;;;;;;;18.16;100.00;97661.31;5097494;28;20058;-93
2022/06/30 07:14:57;;;;;;;7.65;2.17;;;;;;;18.04;100.00;97671.66;5097515;28;20468;-92
2022/06/30 07:17:23;;;;;;;7.78;2.20;;;;;;;17.79;100.00;97672.16;5101232;28;20043;-92
2022/06/30 07:19:48;;;;;;;7.85;2.00;;;;;;;18.17;100.00;97678.88;5103435;28;20166;-93
2022/06/30 07:22:14;;;;;;;10.93;2.47;;;;;;;17.97;100.00;97685.25;5098663;28;20049;-94
2022/06/30 07:25:38;;;;;;;6.78;2.03;;;;;;;18.35;100.00;97683.06;5091406;28;20016;-95
2022/06/30 07:28:07;;;;;;;6.97;1.88;;;;;;;18.55;100.00;97678.41;5083097;28;20035;-93
2022/06/30 07:31:16;;;;;;;7.72;2.40;;;;;;;18.80;100.00;97685.72;5089581;28;20067;-95
2022/06/30 07:33:45;;;;;;;8.32;1.85;;;;;;;19.35;100.00;97678.91;5061950;28;20033;-94
2022/06/30 07:36:17;;;;;;;7.93;1.80;;;;;;;19.47;100.00;97684.38;5106693;27;20088;-96
2022/06/30 07:38:44;;;;;;;7.65;1.90;;;;;;;18.84;100.00;97679.31;5089105;28;20144;-94
2022/06/30 07:41:10;;;;;;;9.82;1.98;;;;;;;19.83;100.00;97675.09;5096721;28;20107;-93
2022/06/30 07:43:44;;;;;;;6.70;1.80;;;;;;;19.85;100.00;97675.84;5090755;28;20081;-93
2022/06/30 07:46:10;;;;;;;8.93;2.00;;;;;;;19.28;100.00;97677.59;5081925;28;20041;-93
2022/06/30 07:48:39;;;;;;;7.20;1.90;;;;;;;19.80;100.00;97678.78;5086708;28;20128;-92
2022/06/30 07:51:05;;;;;;;6.20;1.58;;;;;;;19.52;100.00;97674.38;5093413;28;20039;-94
2022/06/30 07:53:30;;;;;;;6.13;1.77;;;;;;;19.57;100.00;97672.28;5102355;27;20124;-93
2022/06/30 07:56:01;;;;;;;8.32;1.65;;;;;;;19.83;100.00;97672.44;5097492;28;20748;-94
2022/06/30 07:58:26;;;;;;;6.65;1.73;;;;;;;20.45;100.00;97671.94;5099870;28;20074;-94
2022/06/30 08:00:55;;;;;;;8.38;2.03;;;;;;;20.64;100.00;97664.44;5097771;28;20192;-93
2022/06/30 08:03:30;;;;;;;9.25;1.65;;;;;;;20.31;100.00;97679.94;5093199;28;20527;-94
2022/06/30 08:05:56;;;;;;;5.70;1.60;;;;;;;19.67;100.00;97678.69;5107379;28;20097;-94
2022/06/30 08:08:22;;;;;;;4.47;1.25;;;;;;;18.78;100.00;97685.00;5095467;28;20091;-92
2022/06/30 08:10:47;;;;;;;4.53;1.13;;;;;;;18.73;100.00;97681.75;5096787;28;20047;-93
2022/06/30 08:13:13;;;;;;;6.32;1.33;;;;;;;19.35;100.00;97678.91;5097755;28;20037;-93
2022/06/30 08:15:41;;;;;;;7.53;1.40;;;;;;;18.82;100.00;97683.88;5103830;28;20023;-92
2022/06/30 08:18:10;;;;;;;4.85;1.00;;;;;;;18.77;100.00;97681.50;5101507;28;20036;-96
2022/06/30 08:20:43;;;;;;;9.43;1.58;;;;;;;18.21;100.00;97683.03;5112019;27;20035;-95
2022/06/30 08:23:09;;;;;;;5.28;1.20;;;;;;;18.17;100.00;97681.50;5098142;28;20063;-94
2022/06/30 08:25:35;;;;;;;7.22;1.40;;;;;;;18.45;100.00;97683.38;5090704;28;20028;-94
2022/06/30 08:28:03;;;;;;;7.38;1.40;;;;;;;19.22;100.00;97680.59;5087953;28;20032;-93
2022/06/30 08:30:29;;;;;;;5.15;1.23;;;;;;;19.41;100.00;97696.19;5098547;28;20036;-93
2022/06/30 08:32:55;;;;;;;6.72;1.45;;;;;;;19.14;100.00;97683.75;5111535;27;20571;-94
2022/06/30 08:35:24;;;;;;;10.05;1.58;;;;;;;19.30;100.00;97688.06;5097940;28;20039;-94
2022/06/30 08:37:56;;;;;;;8.05;1.50;;;;;;;19.21;100.00;97690.34;5097384;28;20040;-93
2022/06/30 08:43:11;;;;;;;5.93;1.60;;;;;;;19.83;100.00;97683.88;5102789;28;20027;-94
2022/06/30 08:45:38;;;;;;;8.50;1.52;;;;;;;19.60;100.00;97695.91;5096662;28;20069;-95
2022/06/30 08:48:04;;;;;;;8.75;1.15;;;;;;;19.24;100.00;97690.16;5099721;28;20036;-96
2022/06/30 08:50:38;;;;;;;6.95;1.20;;;;;;;19.42;100.00;97689.97;5093638;28;20044;-95
2022/06/30 08:53:04;;;;;;;5.38;1.45;;;;;;;20.33;100.00;97688.63;5091889;28;20480;-94
2022/06/30 08:55:32;;;;;;;6.30;1.30;;;;;;;20.89;100.00;97684.00;5082055;28;20063;-95
2022/06/30 08:58:03;;;;;;;7.20;1.30;;;;;;;20.01;100.00;97695.06;5094498;28;20027;-94
2022/06/30 09:00:30;;;;;;;5.70;1.20;;;;;;;20.36;100.00;97691.94;5081810;28;20028;-95
2022/06/30 09:03:01;;;;;;;4.68;1.30;;;;;;;20.45;100.00;97688.66;5094622;28;20047;-96
2022/06/30 09:05:34;;;;;;;7.15;1.52;;;;;;;20.18;100.00;97693.13;5093597;28;20035;-93
2022/06/30 09:08:00;;;;;;;7.10;1.30;;;;;;;20.87;100.00;97682.41;5093594;28;20042;-95
2022/06/30 09:10:28;;;;;;;7.35;1.50;;;;;;;20.41;100.00;97687.16;5093417;28;20032;-94
2022/06/30 09:13:02;;;;;;;7.47;1.48;;;;;;;21.02;100.00;97684.00;5096480;28;20020;-95
2022/06/30 09:15:30;;;;;;;7.72;1.38;;;;;;;20.47;100.00;97675.31;5088097;28;20099;-94
2022/06/30 09:17:56;;;;;;;6.10;1.40;;;;;;;21.67;100.00;97683.94;5113505;27;20031;-95
2022/06/30 09:20:34;;;;;;;5.93;1.60;;;;;;;21.54;100.00;97686.63;5089771;28;20678;-94
2022/06/30 09:22:59;;;;;;;5.85;1.40;;;;;;;21.16;100.00;97685.69;5084860;28;20111;-93
2022/06/30 09:25:30;;;;;;;5.38;1.30;;;;;;;20.12;100.00;97689.09;5078923;28;20056;-95
2022/06/30 09:27:58;;;;;;;9.07;1.70;;;;;;;20.45;100.00;97699.25;5088952;28;20028;-95
2022/06/30 09:30:26;;;;;;;5.63;1.30;;;;;;;20.24;100.00;97696.22;5077376;28;20404;-94
2022/06/30 09:32:58;;;;;;;6.85;1.20;;;;;;;20.86;100.00;97696.59;5078652;28;20055;-94
2022/06/30 09:35:26;;;;;;;8.35;1.48;;;;;;;20.18;100.00;97703.72;5087952;28;20032;-93
2022/06/30 09:38:01;;;;;;;6.15;1.10;;;;;;;20.15;100.00;97709.22;5087223;28;20024;-95
2022/06/30 09:40:38;;;;;;;6.57;1.40;;;;;;;20.46;100.00;97702.75;5086540;28;20032;-93
2022/06/30 09:43:05;;;;;;;6.30;1.15;;;;;;;20.75;100.00;97713.22;5078902;28;20032;-94
2022/06/30 09:45:42;;;;;;;6.47;1.10;;;;;;;20.98;100.00;97709.84;5090017;28;20102;-93
2022/06/30 09:48:11;;;;;;;7.15;1.40;;;;;;;20.74;100.00;97716.84;5081584;28;20036;-95
2022/06/30 09:50:37;;;;;;;5.03;1.20;;;;;;;21.36;100.00;97708.16;5079399;28;20036;-94
2022/06/30 09:53:06;;;;;;;4.97;1.02;;;;;;;20.75;100.00;97710.56;5102839;27;20043;-93
2022/06/30 09:55:47;;;;;;;6.28;1.30;;;;;;;19.80;100.00;97717.63;5085384;28;20056;-94
2022/06/30 09:58:16;;;;;;;5.53;1.38;;;;;;;19.52;100.00;97721.97;5087341;28;20367;-94
2022/06/30 10:00:48;;;;;;;5.72;1.20;;;;;;;19.86;100.00;97706.63;5090108;28;20051;-95
2022/06/30 10:03:16;;;;;;;4.35;0.90;;;;;;;20.52;100.00;97712.09;5089911;28;20028;-92
2022/06/30 10:05:44;;;;;;;6.88;1.45;;;;;;;20.73;100.00;97710.69;5099254;28;20020;-94
2022/06/30 10:08:12;;;;;;;4.50;1.17;;;;;;;21.42;100.00;97701.56;5095678;28;20044;-95
2022/06/30 10:10:41;;;;;;;6.35;1.20;;;;;;;21.57;100.00;97707.63;5094665;28;20016;-96
2022/06/30 10:13:12;;;;;;;5.72;1.25;;;;;;;21.41;100.00;97715.81;5094033;28;20122;-96
2022/06/30 10:15:39;;;;;;;6.70;1.20;;;;;;;21.57;100.00;97703.19;5088887;28;20043;-94
2022/06/30 10:18:10;;;;;;;6.22;1.40;;;;;;;21.09;100.00;97701.16;5080573;28;20028;-95
2022/06/30 10:20:38;;;;;;;3.78;0.80;;;;;;;21.11;100.00;97709.88;5086884;28;20424;-93
2022/06/30 10:23:13;;;;;;;4.72;1.20;;;;;;;22.07;98.97;97702.31;5097643;28;20035;-93
2022/06/30 10:25:40;;;;;;;5.65;1.05;;;;;;;21.71;99.08;97709.31;5095089;28;20024;-92
2022/06/30 10:28:06;;;;;;;4.75;1.00;;;;;;;22.40;100.00;97708.78;5084697;28;20035;-94
2022/06/30 10:30:44;;;;;;;4.10;0.90;;;;;;;22.77;98.66;97712.19;5085253;28;20054;-93
2022/06/30 10:33:24;;;;;;;7.40;1.33;;;;;;;23.84;98.87;97714.56;5089340;28;20046;-93
2022/06/30 10:36:14;;;;;;;5.57;1.00;;;;;;;24.33;88.71;97713.28;5090064;28;20024;-94
2022/06/30 10:39:08;;;;;;;5.95;1.00;;;;;;;24.26;93.14;97720.09;5085122;28;20036;-92
2022/06/30 10:41:43;;;;;;;6.07;1.00;;;;;;;22.46;90.87;97717.16;5083769;28;20148;-93
2022/06/30 10:44:14;;;;;;;4.50;0.90;;;;;;;21.87;90.97;97717.03;5092630;28;20036;-94
2022/06/30 10:47:04;;;;;;;6.38;1.00;;;;;;;22.44;86.12;97707.59;5086955;28;20095;-92
2022/06/30 10:49:30;;;;;;;5.85;1.20;;;;;;;23.75;86.90;97702.84;5091782;28;20032;-95
2022/06/30 10:52:20;;;;;;;4.28;1.08;;;;;;;23.42;78.01;97709.88;5093786;28;20024;-93
2022/06/30 10:54:46;;;;;;;3.95;1.08;;;;;;;23.46;79.78;97687.38;5081365;28;20091;-95
2022/06/30 10:57:18;;;;;;;4.75;1.30;;;;;;;23.52;81.28;97694.91;5090990;28;20039;-94
2022/06/30 10:59:43;;;;;;;5.07;0.90;;;;;;;23.38;82.69;97705.75;5081412;28;20032;-93
2022/06/30 11:02:13;;;;;;;3.90;0.80;;;;;;;23.63;78.75;97715.34;5087474;28;20110;-95
2022/06/30 11:04:42;;;;;;;6.93;1.20;;;;;;;23.04;89.89;97711.03;5090488;28;20023;-94
2022/06/30 11:07:09;;;;;;;5.70;1.30;;;;;;;22.60;95.26;97715.25;5079628;28;20080;-95
2022/06/30 11:09:44;;;;;;;6.45;1.42;;;;;;;21.31;99.19;97724.41;5090942;28;20048;-94
2022/06/30 11:12:17;;;;;;;5.57;1.30;;;;;;;21.58;100.00;97710.19;5092343;28;20050;-94
2022/06/30 11:14:52;;;;;;;5.20;1.15;;;;;;;20.86;100.00;97721.28;5095334;28;20027;-95
2022/06/30 11:17:35;;;;;;;6.20;1.33;;;;;;;21.19;100.00;97724.41;5093468;28;20027;-93
2022/06/30 11:20:06;;;;;;;4.95;1.15;;;;;;;21.11;100.00;97725.78;5075597;28;20503;-94
2022/06/30 11:22:33;;;;;;;5.78;1.30;;;;;;;21.38;100.00;97721.31;5090845;28;20059;-94
2022/06/30 11:25:03;;;;;;;7.32;1.30;;;;;;;22.20;97.59;97715.50;5095939;28;20686;-94
2022/06/30 11:27:32;;;;;;;5.65;1.35;;;;;;;20.89;99.09;97725.53;5093885;28;20036;-95
2022/06/30 11:30:02;;;;;;;7.93;1.33;;;;;;;21.53;97.86;97712.34;5091413;28;20070;-92
2022/06/30 11:32:28;;;;;;;5.25;1.25;;;;;;;22.03;94.54;97728.22;5096019;28;20024;-95
2022/06/30 11:34:56;;;;;;;6.55;1.30;;;;;;;21.67;96.20;97711.34;5099163;28;20126;-96
2022/06/30 11:37:30;;;;;;;6.07;0.90;;;;;;;21.65;89.95;97708.78;5091889;28;20034;-95
2022/06/30 11:40:01;;;;;;;4.65;1.05;;;;;;;22.12;94.96;97716.94;5085659;28;20035;-96
2022/06/30 11:42:28;;;;;;;4.75;1.02;;;;;;;22.69;87.21;97709.25;5096552;28;20085;-94
2022/06/30 11:44:54;;;;;;;4.40;1.02;;;;;;;24.37;86.91;97687.25;5097056;28;20024;-94
2022/06/30 11:47:22;;;;;;;5.88;1.13;;;;;;;23.92;82.50;97690.03;5100148;28;20051;-94